KAUS - Austin/Bergstrom Int, TX, US

Issued at 0540 UTC 13 Aug 2022
Updated at 0958 UTC 13 Aug 2022
Potential Impact None Slight Moderate High
Time0953Z 13/10Z 13/11Z 13/12Z 13/13Z 13/14Z 13/15Z 13/16Z 13/17Z 13/18Z 13/19Z 13/20Z 13/21Z 13/22Z>>
Type OBS PRVL PRVL PRVL PRVL PRVL PRVL PRVL PRVL PRVL PRVL PRVL PRVL PRVL
VIS 10 >6 >6 >6 >6 >6 >6 >6 >6 >6 >6 >6 >6 >6
CIG -- -- -- -- -- -- -- -- -- -- 250 250 250 250
Cover FEW SCT SCT SCT SCT SCT SCT SCT SCT SCT BKN BKN BKN BKN
FltCat VFR VFR VFR VFR VFR VFR VFR VFR VFR VFR VFR VFR VFR VFR
WX -- -- -- -- -- -- -- -- -- -- VCTS VCTS VCTS VCTS
WDir VRB VRB VRB VRB VRB VRB VRB 20 20 20 40 40 40 40
WSpd 0 3 3 3 3 3 3 10 10 10 12 12 12 12
WGst -- -- -- -- -- -- -- -- -- -- -- -- -- --
WSHgt -- -- -- -- -- -- -- -- -- -- -- -- -- --
WSDir -- -- -- -- -- -- -- -- -- -- -- -- -- --
WSSpd -- -- -- -- -- -- -- -- -- -- -- -- -- --
Raw TAF
KAUS 130540Z 1306/1412 VRB03KT P6SM SCT120 SCT250
  FM131600 02010KT P6SM SCT050
  FM131900 04012KT P6SM VCTS SCT070CB BKN250
  FM140000 08008KT P6SM SCT120 BKN250


Raw METAR
KAUS 130953Z 00000KT 10SM FEW110 23/21 A2999 RMK AO2 SLP144 T02330211 $
KAUS 130853Z 00000KT 10SM FEW110 24/21 A2999 RMK AO2 SLP141 T02390211 55001 $
KAUS 130753Z 00000KT 10SM FEW110 24/22 A2998 RMK AO2 SLP140 T02390217 $
KAUS 130653Z 00000KT 10SM OVC110 27/22 A2998 RMK AO2 SLP141 T02670217 $

METAR Board
Radar Display
Forecast Discussion
For situational awareness. Not to be used for flight planning purposes.